createdAt,value
2019-02-04T00:01:20.334Z,29.67
2019-02-04T00:03:51.746Z,27.47
2019-02-04T00:06:22.080Z,27.17
2019-02-04T00:08:52.362Z,27.23
2019-02-04T00:11:22.706Z,27.03
2019-02-04T00:13:53.013Z,28.10
2019-02-04T00:16:23.201Z,28.37
2019-02-04T00:18:53.470Z,26.03
2019-02-04T00:21:23.747Z,27.50
2019-02-04T00:23:54.045Z,25.63
2019-02-04T00:26:24.440Z,26.53
2019-02-04T00:28:54.643Z,25.87
2019-02-04T00:31:25.346Z,25.77
2019-02-04T00:33:55.631Z,26.03
2019-02-04T00:36:25.961Z,24.90
2019-02-04T00:38:56.254Z,23.67
2019-02-04T00:41:26.501Z,24.07
2019-02-04T00:43:57.441Z,25.03
2019-02-04T00:46:27.734Z,24.33
2019-02-04T00:48:58.016Z,24.97
2019-02-04T00:51:28.388Z,23.27
2019-02-04T00:53:58.678Z,23.03
2019-02-04T00:56:28.935Z,24.17
2019-02-04T00:58:59.229Z,24.17
2019-02-04T01:01:29.963Z,22.93
2019-02-04T01:04:00.249Z,22.40
2019-02-04T01:06:30.499Z,22.20
2019-02-04T01:09:00.939Z,24.67
2019-02-04T01:11:33.233Z,24.87
2019-02-04T01:14:05.084Z,20.27
2019-02-04T01:16:35.457Z,20.80
2019-02-04T01:19:06.984Z,19.57
2019-02-04T01:21:37.331Z,20.17
2019-02-04T01:24:07.601Z,21.00
2019-02-04T01:26:37.913Z,19.30
2019-02-04T01:29:08.255Z,20.77
2019-02-04T01:31:38.533Z,20.57
2019-02-04T01:34:08.819Z,18.27
2019-02-04T01:36:39.381Z,17.50
2019-02-04T01:39:10.803Z,19.17
2019-02-04T01:41:41.049Z,18.43
2019-02-04T01:44:11.477Z,15.03
2019-02-04T01:46:41.849Z,15.53
2019-02-04T01:49:12.623Z,14.53
2019-02-04T01:51:42.881Z,14.40
2019-02-04T01:54:13.146Z,12.93
2019-02-04T01:56:43.479Z,13.20
2019-02-04T01:59:13.737Z,12.33
2019-02-04T02:01:44.053Z,11.83
2019-02-04T02:04:14.549Z,11.43
2019-02-04T02:06:44.888Z,10.57
2019-02-04T02:09:22.878Z,10.23
2019-02-04T02:11:53.124Z,10.40
2019-02-04T02:14:23.889Z,11.47
2019-02-04T02:16:54.227Z,8.97
2019-02-04T02:19:24.782Z,8.43
2019-02-04T02:21:55.053Z,8.93
2019-02-04T02:24:25.390Z,9.40
2019-02-04T02:26:56.042Z,9.57
2019-02-04T02:29:26.311Z,8.60
2019-02-04T02:31:56.644Z,8.33
2019-02-04T02:34:26.902Z,6.03
2019-02-04T02:36:57.279Z,6.47
2019-02-04T02:39:32.910Z,7.17
2019-02-04T02:42:08.626Z,7.50
2019-02-04T02:44:38.871Z,5.97
2019-02-04T02:47:09.190Z,7.40
2019-02-04T02:49:39.314Z,6.13
2019-02-04T02:52:10.395Z,6.87
2019-02-04T02:54:40.640Z,6.47
2019-02-04T02:57:10.931Z,6.50
2019-02-04T02:59:41.240Z,7.10
2019-02-04T03:02:11.520Z,6.77
2019-02-04T03:04:41.809Z,5.60
2019-02-04T03:07:12.104Z,6.40
2019-02-04T03:09:42.354Z,6.20
2019-02-04T03:12:12.592Z,6.57
2019-02-04T03:14:43.157Z,6.90
2019-02-04T03:17:13.398Z,7.03
2019-02-04T03:19:44.026Z,6.43
2019-02-04T03:22:14.194Z,6.23
2019-02-04T03:24:44.470Z,6.47
2019-02-04T03:27:14.732Z,6.40
2019-02-04T03:29:45.042Z,6.30
2019-02-04T03:32:15.731Z,6.07
2019-02-04T03:34:46.149Z,5.90
2019-02-04T03:37:16.422Z,6.50
2019-02-04T03:39:46.672Z,5.67
2019-02-04T03:42:17.022Z,5.80
2019-02-04T03:44:47.306Z,5.57
2019-02-04T03:47:17.694Z,5.53
2019-02-04T03:49:47.922Z,5.50
2019-02-04T03:52:18.150Z,5.20
2019-02-04T03:54:48.379Z,4.97
2019-02-04T03:57:18.656Z,4.73
2019-02-04T03:59:48.900Z,5.33
2019-02-04T04:02:19.537Z,4.93
2019-02-04T04:04:49.804Z,5.03
2019-02-04T04:07:20.133Z,4.77
2019-02-04T04:09:51.618Z,5.00
2019-02-04T04:12:22.408Z,4.47
2019-02-04T04:14:52.654Z,4.80
2019-02-04T04:17:23.103Z,4.53
2019-02-04T04:19:53.406Z,4.53
2019-02-04T04:22:23.734Z,4.63
2019-02-04T04:24:54.298Z,4.90
2019-02-04T04:27:24.559Z,4.83
2019-02-04T04:29:54.867Z,4.70
2019-02-04T04:32:25.139Z,5.27
2019-02-04T04:34:55.346Z,5.10
2019-02-04T04:37:25.643Z,4.57
2019-02-04T04:39:55.874Z,4.53
2019-02-04T04:42:26.137Z,4.60
2019-02-04T04:44:56.426Z,4.10
2019-02-04T04:47:26.727Z,4.83
2019-02-04T04:49:56.906Z,4.37
2019-02-04T04:52:27.503Z,3.90
2019-02-04T04:54:57.833Z,4.30
2019-02-04T04:57:28.177Z,3.70
2019-02-04T04:59:58.405Z,4.00
2019-02-04T05:02:28.709Z,4.10
2019-02-04T05:04:59.389Z,4.67
2019-02-04T05:07:29.670Z,3.47
2019-02-04T05:09:59.917Z,3.63
2019-02-04T05:12:30.233Z,3.03
2019-02-04T05:15:00.517Z,3.23
2019-02-04T05:17:30.821Z,3.40
2019-02-04T05:20:01.177Z,3.00
2019-02-04T05:22:31.723Z,3.60
2019-02-04T05:25:01.994Z,3.47
2019-02-04T05:27:32.378Z,2.70
2019-02-04T05:30:02.661Z,2.90
2019-02-04T05:32:33.166Z,3.33
2019-02-04T05:35:03.638Z,3.23
2019-02-04T05:37:33.933Z,3.40
2019-02-04T05:40:04.845Z,3.10
2019-02-04T05:42:35.160Z,3.80
2019-02-04T05:45:07.295Z,3.60
2019-02-04T05:47:37.533Z,3.77
2019-02-04T05:50:10.615Z,2.80
2019-02-04T05:52:40.902Z,3.70
2019-02-04T05:55:12.009Z,3.07
2019-02-04T05:57:42.785Z,3.57
2019-02-04T06:00:20.647Z,2.97
2019-02-04T06:02:50.945Z,3.30
2019-02-04T06:05:21.595Z,3.30
2019-02-04T06:07:51.931Z,3.00
2019-02-04T06:10:22.347Z,3.30
2019-02-04T06:12:52.790Z,3.90
2019-02-04T06:15:23.556Z,3.17
2019-02-04T06:17:53.864Z,2.90
2019-02-04T06:20:24.238Z,2.90
2019-02-04T06:22:55.066Z,3.80
2019-02-04T06:25:25.344Z,3.73
2019-02-04T06:27:55.602Z,3.53
2019-02-04T06:30:25.972Z,3.13
2019-02-04T06:32:56.643Z,4.20
2019-02-04T06:35:28.163Z,4.30
2019-02-04T06:37:58.454Z,3.97
2019-02-04T06:40:28.841Z,3.73
2019-02-04T06:42:59.094Z,4.00
2019-02-04T06:45:29.427Z,4.40
2019-02-04T06:47:59.673Z,3.73
2019-02-04T06:50:29.934Z,4.73
2019-02-04T06:53:00.158Z,4.07
2019-02-04T06:55:32.018Z,4.70
2019-02-04T06:58:02.278Z,5.83
2019-02-04T07:00:32.590Z,5.00
2019-02-04T07:03:03.174Z,5.40
2019-02-04T07:05:43.411Z,4.93
2019-02-04T07:08:05.762Z,4.90
2019-02-04T07:10:36.006Z,4.70
2019-02-04T07:13:06.281Z,4.93
2019-02-04T07:15:36.434Z,5.00
2019-02-04T07:18:06.846Z,5.57
2019-02-04T07:20:37.108Z,5.97
2019-02-04T07:23:07.629Z,4.97
2019-02-04T07:25:39.020Z,4.97
2019-02-04T07:28:09.313Z,5.80
2019-02-04T07:30:39.940Z,5.60
2019-02-04T07:33:10.211Z,6.13
2019-02-04T07:35:40.480Z,6.43
2019-02-04T07:38:10.712Z,6.23
2019-02-04T07:40:41.005Z,6.80
2019-02-04T07:43:11.316Z,6.80
2019-02-04T07:45:41.687Z,7.97
2019-02-04T07:48:11.936Z,6.27
2019-02-04T07:50:42.422Z,5.90
2019-02-04T07:53:12.633Z,6.60
2019-02-04T07:55:42.931Z,6.70
2019-02-04T07:58:13.166Z,7.23
2019-02-04T08:00:43.766Z,7.87
2019-02-04T08:03:15.133Z,6.13
2019-02-04T08:05:45.612Z,7.60
2019-02-04T08:08:15.913Z,8.23
2019-02-04T08:10:46.582Z,7.83
2019-02-04T08:13:17.075Z,8.33
2019-02-04T08:15:47.417Z,8.17
2019-02-04T08:18:17.763Z,7.77
2019-02-04T08:20:48.007Z,8.90
2019-02-04T08:23:18.250Z,9.40
2019-02-04T08:25:48.680Z,9.57
2019-02-04T08:28:19.038Z,8.70
2019-02-04T08:30:49.327Z,9.00
2019-02-04T08:33:19.569Z,8.87
2019-02-04T08:35:49.863Z,9.77
2019-02-04T08:38:20.579Z,10.23
2019-02-04T08:40:50.870Z,11.23
2019-02-04T08:43:21.207Z,10.53
2019-02-04T08:45:51.637Z,10.33
2019-02-04T08:48:21.989Z,10.70
2019-02-04T08:50:52.197Z,10.87
2019-02-04T08:53:22.449Z,11.93
2019-02-04T08:55:52.718Z,12.00
2019-02-04T08:58:22.933Z,11.47
2019-02-04T09:00:53.181Z,12.50
2019-02-04T09:03:23.544Z,12.73
2019-02-04T09:05:53.769Z,12.43
2019-02-04T09:08:24.245Z,13.23
2019-02-04T09:10:54.495Z,13.67
2019-02-04T09:13:24.891Z,12.93
2019-02-04T09:15:55.161Z,12.07
2019-02-04T09:18:25.489Z,12.40
2019-02-04T09:20:56.195Z,12.50
2019-02-04T09:23:26.527Z,14.90
2019-02-04T09:25:58.007Z,12.27
2019-02-04T09:28:29.927Z,13.40
2019-02-04T09:31:00.117Z,12.73
2019-02-04T09:33:30.463Z,13.93
2019-02-04T09:36:00.729Z,12.30
2019-02-04T09:38:31.016Z,14.10
2019-02-04T09:41:01.458Z,13.57
2019-02-04T09:43:31.818Z,12.57
2019-02-04T09:46:02.043Z,13.80
2019-02-04T09:48:32.969Z,12.33
2019-02-04T09:51:03.518Z,13.83
2019-02-04T09:53:33.850Z,13.23
2019-02-04T09:56:04.388Z,13.13
2019-02-04T09:58:34.644Z,12.23
2019-02-04T10:01:05.405Z,12.17
2019-02-04T10:03:35.878Z,12.77
2019-02-04T10:06:06.330Z,11.73
2019-02-04T10:08:36.654Z,12.83
2019-02-04T10:11:06.995Z,12.70
2019-02-04T10:13:37.335Z,10.80
2019-02-04T10:16:08.150Z,12.80
2019-02-04T10:18:38.722Z,13.60
2019-02-04T10:21:09.039Z,12.57
2019-02-04T10:23:39.386Z,12.67
2019-02-04T10:26:09.760Z,12.53
2019-02-04T10:28:40.452Z,14.20
2019-02-04T10:31:10.767Z,12.93
2019-02-04T10:33:40.976Z,14.10
2019-02-04T10:36:11.262Z,13.97
2019-02-04T10:38:41.761Z,14.23
2019-02-04T10:41:12.132Z,12.93
2019-02-04T10:43:42.519Z,13.00
2019-02-04T10:46:12.865Z,13.10
2019-02-04T10:48:43.493Z,14.40
2019-02-04T10:51:15.152Z,14.47
2019-02-04T10:53:45.362Z,14.97
2019-02-04T10:56:16.371Z,14.27
2019-02-04T10:58:47.102Z,12.47
2019-02-04T11:01:17.786Z,15.00
2019-02-04T11:03:48.154Z,15.17
2019-02-04T11:06:18.593Z,16.57
2019-02-04T11:08:57.376Z,16.07
2019-02-04T11:11:27.956Z,18.00
2019-02-04T11:13:58.260Z,18.23
2019-02-04T11:16:28.540Z,16.67
2019-02-04T11:18:58.914Z,17.33
2019-02-04T11:21:29.687Z,17.07
2019-02-04T11:23:59.935Z,17.97
2019-02-04T11:26:30.199Z,16.47
2019-02-04T11:29:00.740Z,17.30
2019-02-04T11:31:31.022Z,16.43
2019-02-04T11:34:01.937Z,17.40
2019-02-04T11:36:32.223Z,17.60
2019-02-04T11:39:02.519Z,14.00
2019-02-04T11:41:34.427Z,13.97
2019-02-04T11:44:04.745Z,14.90
2019-02-04T11:46:35.092Z,11.37
2019-02-04T11:49:05.601Z,13.00
2019-02-04T11:51:35.987Z,13.93
2019-02-04T11:54:06.267Z,14.10
2019-02-04T11:56:36.482Z,13.10
2019-02-04T11:59:06.736Z,13.03
2019-02-04T12:01:37.045Z,14.17
2019-02-04T12:04:07.348Z,13.93
2019-02-04T12:06:37.595Z,13.43
2019-02-04T12:09:09.813Z,13.57
2019-02-04T12:11:40.159Z,15.33
2019-02-04T12:14:11.005Z,14.67
2019-02-04T12:16:41.570Z,15.57
2019-02-04T12:19:11.854Z,15.13
2019-02-04T12:21:42.033Z,15.23
2019-02-04T12:24:12.363Z,13.93
2019-02-04T12:26:42.660Z,15.20
2019-02-04T12:29:12.949Z,13.23
2019-02-04T12:31:43.171Z,15.33
2019-02-04T12:34:13.376Z,14.90
2019-02-04T12:36:43.619Z,13.93
2019-02-04T12:39:18.889Z,14.70
2019-02-04T12:41:50.781Z,14.60
2019-02-04T12:44:21.761Z,14.97
2019-02-04T12:46:52.060Z,15.47
2019-02-04T12:49:22.413Z,15.07
2019-02-04T12:51:52.666Z,15.77
2019-02-04T12:54:26.519Z,15.90
2019-02-04T12:56:55.353Z,13.77
2019-02-04T12:59:25.993Z,14.77
2019-02-04T13:01:56.325Z,13.97
2019-02-04T13:04:26.590Z,14.07
2019-02-04T13:06:57.456Z,14.03
2019-02-04T13:09:27.899Z,15.47
2019-02-04T13:11:58.227Z,14.27
2019-02-04T13:14:28.467Z,15.13
2019-02-04T13:16:58.817Z,14.77
2019-02-04T13:19:29.142Z,15.83
2019-02-04T13:21:59.762Z,14.47
2019-02-04T13:24:30.057Z,14.73
2019-02-04T13:27:00.408Z,14.73
2019-02-04T13:29:30.663Z,14.37
2019-02-04T13:32:02.131Z,16.97
2019-02-04T13:34:32.790Z,16.77
2019-02-04T13:37:03.151Z,17.40
2019-02-04T13:39:33.382Z,17.73
2019-02-04T13:42:03.712Z,14.87
2019-02-04T13:44:33.999Z,16.97
2019-02-04T13:47:05.862Z,16.67
2019-02-04T13:49:36.283Z,17.07
2019-02-04T13:52:06.591Z,15.20
2019-02-04T13:54:36.887Z,14.37
2019-02-04T13:57:07.211Z,14.57
2019-02-04T13:59:37.515Z,15.60
2019-02-04T14:02:09.436Z,14.53
2019-02-04T14:04:39.757Z,15.07
2019-02-04T14:07:10.091Z,14.20
2019-02-04T14:09:40.406Z,13.87
2019-02-04T14:12:10.747Z,14.50
2019-02-04T14:14:41.037Z,15.03
2019-02-04T14:17:11.617Z,14.57
2019-02-04T14:19:41.866Z,15.03
2019-02-04T14:22:12.286Z,13.73
2019-02-04T14:24:42.587Z,13.33
2019-02-04T14:27:12.906Z,13.40
2019-02-04T14:29:43.222Z,12.63
2019-02-04T14:32:13.601Z,13.33
2019-02-04T14:34:43.962Z,13.17
2019-02-04T14:37:14.267Z,13.97
2019-02-04T14:39:45.010Z,14.27
2019-02-04T14:42:18.090Z,14.30
2019-02-04T14:44:56.374Z,13.83
2019-02-04T14:48:02.759Z,12.40
2019-02-04T14:50:49.522Z,12.73
2019-02-04T14:53:55.614Z,12.77
2019-02-04T14:56:48.251Z,13.27
2019-02-04T14:59:31.922Z,13.73
2019-02-04T15:02:23.310Z,14.10
2019-02-04T15:05:22.190Z,13.57
2019-02-04T15:08:42.222Z,14.40
2019-02-04T15:11:39.798Z,13.10
2019-02-04T15:15:15.394Z,12.97
2019-02-04T15:18:31.372Z,14.00
2019-02-04T15:21:35.960Z,14.17
2019-02-04T15:24:55.694Z,12.63
2019-02-04T15:28:00.153Z,14.57
2019-02-04T15:30:59.090Z,13.43
2019-02-04T15:34:10.807Z,13.87
2019-02-04T15:37:04.070Z,13.73
2019-02-04T15:39:54.084Z,14.50
2019-02-04T15:43:10.724Z,14.77
2019-02-04T15:45:56.075Z,13.70
2019-02-04T15:48:42.862Z,13.83
2019-02-04T15:51:36.552Z,14.37
2019-02-04T15:54:08.963Z,12.30
2019-02-04T15:56:39.222Z,14.30
2019-02-04T15:59:09.539Z,14.70
2019-02-04T16:01:39.814Z,14.13
2019-02-04T16:04:30.139Z,14.87
2019-02-04T16:07:00.397Z,14.73
2019-02-04T16:09:31.997Z,14.77
2019-02-04T16:12:02.810Z,14.50
2019-02-04T16:14:33.526Z,14.10
2019-02-04T16:17:10.988Z,14.43
2019-02-04T16:19:42.283Z,14.50
2019-02-04T16:22:12.722Z,13.00
2019-02-04T16:24:43.123Z,13.27
2019-02-04T16:27:13.847Z,12.97
2019-02-04T16:29:44.198Z,13.70
2019-02-04T16:32:14.623Z,12.53
2019-02-04T16:34:44.914Z,12.73
2019-02-04T16:37:15.229Z,13.10
2019-02-04T16:39:45.595Z,13.03
2019-02-04T16:42:15.872Z,13.47
2019-02-04T16:44:46.232Z,12.07
2019-02-04T16:47:16.759Z,13.27
2019-02-04T16:49:47.167Z,13.53
2019-02-04T16:52:17.598Z,13.23
2019-02-04T16:54:48.340Z,13.77
2019-02-04T16:57:18.597Z,12.90
2019-02-04T16:59:50.520Z,12.47
2019-02-04T17:02:20.968Z,12.57
2019-02-04T17:04:51.283Z,12.23
2019-02-04T17:07:22.028Z,12.90
2019-02-04T17:09:52.249Z,13.20
2019-02-04T17:12:22.564Z,12.17
2019-02-04T17:14:53.263Z,13.17
2019-02-04T17:17:23.543Z,14.57
2019-02-04T17:19:53.867Z,14.77
2019-02-04T17:22:24.714Z,16.10
2019-02-04T17:24:55.101Z,14.93
2019-02-04T17:27:25.387Z,15.67
2019-02-04T17:29:55.715Z,16.43
2019-02-04T17:32:26.005Z,17.93
2019-02-04T17:34:56.513Z,17.87
2019-02-04T17:37:26.818Z,18.50
2019-02-04T17:39:57.143Z,16.87
2019-02-04T17:42:27.507Z,17.87
2019-02-04T17:44:57.888Z,17.47
2019-02-04T17:47:28.174Z,17.00
2019-02-04T17:49:58.543Z,17.63
2019-02-04T17:52:28.821Z,16.57
2019-02-04T17:54:59.278Z,15.47
2019-02-04T17:57:29.643Z,15.77
2019-02-04T17:59:59.955Z,14.13
2019-02-04T18:02:30.532Z,15.37
2019-02-04T18:05:01.313Z,15.77
2019-02-04T18:07:31.712Z,15.40
2019-02-04T18:10:02.070Z,15.17
2019-02-04T18:12:32.303Z,15.07
2019-02-04T18:15:02.683Z,14.50
2019-02-04T18:17:34.214Z,14.53
2019-02-04T18:20:05.401Z,14.80
2019-02-04T18:22:35.799Z,14.67
2019-02-04T18:25:07.703Z,14.77
2019-02-04T18:27:38.654Z,14.00
2019-02-04T18:30:11.630Z,15.53
2019-02-04T18:32:42.051Z,16.47
2019-02-04T18:35:13.042Z,16.73
2019-02-04T18:37:43.348Z,17.10
2019-02-04T18:40:15.601Z,15.80
2019-02-04T18:42:46.279Z,15.87
2019-02-04T18:45:27.318Z,16.20
2019-02-04T18:47:57.615Z,16.77
2019-02-04T18:50:28.234Z,16.73
2019-02-04T18:52:59.001Z,18.07
2019-02-04T18:55:31.635Z,16.67
2019-02-04T18:58:02.015Z,15.73
2019-02-04T19:00:32.642Z,16.50
2019-02-04T19:03:03.810Z,16.83
2019-02-04T19:05:34.254Z,16.40
2019-02-04T19:08:05.551Z,18.53
2019-02-04T19:10:35.803Z,15.77
2019-02-04T19:13:06.112Z,15.30
2019-02-04T19:15:36.769Z,17.57
2019-02-04T19:18:10.182Z,17.17
2019-02-04T19:20:40.433Z,19.87
2019-02-04T19:23:10.665Z,19.60
2019-02-04T19:25:41.144Z,20.80
2019-02-04T19:28:11.576Z,19.73
2019-02-04T19:30:59.024Z,18.50
2019-02-04T19:33:29.405Z,18.67
2019-02-04T19:35:59.758Z,17.93
2019-02-04T19:38:30.006Z,16.10
2019-02-04T19:41:01.012Z,15.37
2019-02-04T19:43:32.521Z,15.57
2019-02-04T19:46:02.998Z,16.20
2019-02-04T19:48:34.552Z,12.67
2019-02-04T19:51:05.582Z,9.57
2019-02-04T19:53:36.275Z,9.97
2019-02-04T19:56:07.025Z,10.13
2019-02-04T19:58:37.466Z,12.33
2019-02-04T20:01:07.752Z,12.13
2019-02-04T20:03:38.467Z,10.30
2019-02-04T20:06:08.920Z,10.30
2019-02-04T20:08:39.307Z,10.53
2019-02-04T20:11:09.571Z,10.83
2019-02-04T20:13:40.024Z,11.77
2019-02-04T20:16:10.333Z,11.93
2019-02-04T20:18:43.784Z,11.60
2019-02-04T20:21:14.298Z,10.00
2019-02-04T20:23:44.534Z,10.40
2019-02-04T20:26:14.869Z,11.80
2019-02-04T20:28:45.117Z,11.73
2019-02-04T20:31:15.428Z,11.07
2019-02-04T20:33:45.745Z,10.37
2019-02-04T20:36:16.024Z,10.17
2019-02-04T20:38:46.411Z,10.70
2019-02-04T20:41:16.682Z,11.20
2019-02-04T20:43:46.898Z,10.30
2019-02-04T20:46:17.215Z,10.50
2019-02-04T20:48:47.919Z,11.57
2019-02-04T20:51:18.579Z,11.80
2019-02-04T20:53:48.907Z,12.97
2019-02-04T20:56:19.180Z,13.30
2019-02-04T20:58:49.530Z,13.33
2019-02-04T21:01:19.870Z,12.47
2019-02-04T21:03:50.280Z,11.47
2019-02-04T21:06:20.605Z,11.30
2019-02-04T21:08:51.005Z,12.00
2019-02-04T21:11:21.340Z,11.63
2019-02-04T21:13:51.833Z,13.13
2019-02-04T21:16:22.679Z,12.30
2019-02-04T21:18:52.948Z,12.80
2019-02-04T21:21:23.245Z,12.70
2019-02-04T21:23:53.771Z,12.50
2019-02-04T21:26:24.057Z,12.53
2019-02-04T21:28:54.689Z,11.90
2019-02-04T21:31:25.264Z,12.97
2019-02-04T21:33:55.486Z,13.37
2019-02-04T21:36:25.975Z,14.30
2019-02-04T21:38:56.399Z,13.37
2019-02-04T21:41:26.681Z,13.27
2019-02-04T21:43:57.360Z,14.10
2019-02-04T21:46:27.703Z,13.27
2019-02-04T21:48:58.544Z,12.97
2019-02-04T21:51:28.844Z,12.77
2019-02-04T21:53:59.170Z,13.83
2019-02-04T21:56:29.445Z,13.97
2019-02-04T21:58:59.911Z,14.10
2019-02-04T22:01:30.168Z,14.07
2019-02-04T22:04:00.552Z,15.27
2019-02-04T22:06:31.278Z,15.67
2019-02-04T22:09:01.634Z,15.73
2019-02-04T22:11:33.448Z,16.27
2019-02-04T22:14:04.528Z,18.57
2019-02-04T22:16:34.893Z,16.77
2019-02-04T22:19:05.372Z,17.57
2019-02-04T22:21:35.730Z,17.53
2019-02-04T22:24:06.286Z,18.03
2019-02-04T22:26:36.591Z,17.20
2019-02-04T22:29:07.505Z,18.33
2019-02-04T22:31:37.958Z,19.17
2019-02-04T22:34:08.558Z,16.47
2019-02-04T22:36:39.038Z,17.60
2019-02-04T22:39:10.420Z,17.07
2019-02-04T22:41:40.689Z,17.40
2019-02-04T22:44:11.021Z,15.23
2019-02-04T22:46:41.383Z,16.17
2019-02-04T22:49:11.710Z,16.53
2019-02-04T22:51:42.033Z,15.70
2019-02-04T22:54:12.483Z,15.70
2019-02-04T22:56:42.814Z,16.53
2019-02-04T22:59:13.040Z,17.13
2019-02-04T23:01:50.615Z,17.37
2019-02-04T23:04:20.914Z,17.67
2019-02-04T23:06:51.494Z,17.80
2019-02-04T23:09:21.786Z,17.73
2019-02-04T23:11:52.302Z,17.80
2019-02-04T23:14:22.619Z,18.97
2019-02-04T23:16:52.938Z,18.60
2019-02-04T23:19:23.894Z,17.83
2019-02-04T23:21:54.362Z,20.00
2019-02-04T23:24:24.618Z,19.70
2019-02-04T23:26:55.068Z,19.03
2019-02-04T23:29:25.488Z,18.47
2019-02-04T23:31:56.281Z,19.00
2019-02-04T23:34:26.557Z,18.10
2019-02-04T23:36:56.986Z,17.83
2019-02-04T23:39:27.245Z,17.27
2019-02-04T23:41:58.375Z,15.60
2019-02-04T23:44:29.009Z,15.60
2019-02-04T23:46:59.385Z,15.97
2019-02-04T23:49:30.805Z,15.67
2019-02-04T23:52:01.188Z,16.73
2019-02-04T23:54:31.514Z,15.70
2019-02-04T23:57:02.123Z,16.07
2019-02-04T23:59:34.884Z,15.37
